ZGHA

Changsha Huanghua International Airport

Airport
ICAO code
ZGHA
IATA Code
HHA
Summary
ICAO Region
APAC
ICAO Territory
Location

Huanghua, Changsha County, Hunan

Serving
Changsha
Elevation
217 ft
Coordinates
28° 11' 48" N , 113° 13' 15" E
KCC
Metar
ZGHA 242100Z 02004MPS 9999 -SHRA SCT005 OVC040 21/21 Q1008 NOSIG

Description

Changsha Huanghua International Airport is the airport serving Changsha, Hunan province, People's Republic of China, as well as nearby cities such as Zhuzhou and Xiangtan. Located about 20 km of the city centre in the town of Huanghua in Changsha County.

Climatology

Humid subtropical climate (Köppen climate classification Cfa.) Hot muggy summers with frequent thunderstorms. Winters are mild and precipitation during this season comes from mid-latitude cyclones. This climate type is quite common on the east coasts of continents.

Airport map

Aerial View

SKYbrary Partners:

Safety knowledge contributed by: